»·PEaware :: N982TB KRDD-KPDX

N982TB :: KRDD-KPDX

FLIGHT INFORMATION

Flight Status: Arrived
Operator: Privately registered:
United States
More flights under this callsign
Pilot: Anonymous 15639 (15639)
Aircraft: SOCATA TBM-900
(TBM9)
More flights by this aircraft type
Origin: KRDD Redding Mun
United States
Destination: KPDX Portland Intl
United States
More flights between these airports :: More routes between these airports
Route: +KREST3 KREST OED MOXEE TMBRS2
File this flight plan on PilotEdge
Remarks: PBN / D2 DOF / 181023 REG / N982TB EET / KZSE0014 PER / B RMK / TCAS SIMBRIEF
Altitude:
(Current/Filed)
30,000ft
Speed:
(Current/Filed)
317kts
Departed: 23-Oct-18 01:21 PM
Arrived: 23-Oct-18 02:33 PM
Distance/Time
Traveled:
305nm/1:11
Distance/Time
To Go:
Arrived

Flight Plot

Page will automatically refresh every two minutes.

Flight plan parsing failed; only flown route is shown


Map Options




Map Legend


Flown Route
Filed Route
Departure Airport
Arrival Airport
Navaid (VOR, NDB)
Fix

Horizontal Profiles

Position Reports

Time Latitude Longitude Heading Altitude Ground
Speed
23-Oct-18 13:05 40.508940 -122.299199 0 506ft 0kts
23-Oct-18 13:06 40.508940 -122.299199 360 506ft 0kts
23-Oct-18 13:07 40.508940 -122.299199 360 506ft 0kts
23-Oct-18 13:08 40.508940 -122.299199 360 506ft 0kts
23-Oct-18 13:09 40.508940 -122.299199 360 506ft 0kts
23-Oct-18 13:10 40.508940 -122.299199 360 506ft 0kts
23-Oct-18 13:11 40.508940 -122.299199 360 506ft 0kts
23-Oct-18 13:12 40.508940 -122.299199 360 506ft 0kts
23-Oct-18 13:13 40.508940 -122.299199 360 506ft 0kts
23-Oct-18 13:14 40.508940 -122.299199 360 506ft 0kts
23-Oct-18 13:15 40.508940 -122.299199 360 506ft 0kts
23-Oct-18 13:16 40.508940 -122.299199 359 506ft 0kts
23-Oct-18 13:17 40.508940 -122.299199 359 506ft 0kts
23-Oct-18 13:18 40.508876 -122.298819 134 506ft 7kts
23-Oct-18 13:19 40.505751 -122.298402 173 506ft 14kts
23-Oct-18 13:20 40.502500 -122.296699 135 506ft 12kts
23-Oct-18 13:21 40.501974 -122.296012 135 506ft 0kts
23-Oct-18 13:22 40.501974 -122.296012 135 506ft 0kts
23-Oct-18 13:23 40.502410 -122.294890 0 506ft 46kts
23-Oct-18 13:24 40.533522 -122.285530 30 1992ft 137kts
23-Oct-18 13:25 40.568405 -122.273730 10 4523ft 130kts
23-Oct-18 13:26 40.603863 -122.262971 12 6987ft 136kts
23-Oct-18 13:27 40.649074 -122.248115 11 8361ft 193kts
23-Oct-18 13:28 40.702109 -122.234550 344 10138ft 195kts
23-Oct-18 13:29 40.755320 -122.253377 340 11903ft 203kts
23-Oct-18 13:30 40.810173 -122.273723 339 13644ft 208kts
23-Oct-18 13:31 40.866672 -122.294804 339 15242ft 216kts
23-Oct-18 13:32 40.924572 -122.316437 338 16961ft 220kts
23-Oct-18 13:33 40.983934 -122.338658 338 18442ft 226kts
23-Oct-18 13:34 41.045502 -122.361754 337 19714ft 234kts
23-Oct-18 13:35 41.108800 -122.385560 336 20820ft 243kts
23-Oct-18 13:36 41.173502 -122.409933 336 22175ft 250kts
23-Oct-18 13:37 41.240452 -122.435206 336 23649ft 256kts
23-Oct-18 13:38 41.309574 -122.461367 336 24971ft 263kts
23-Oct-18 13:39 41.378607 -122.487499 335 26738ft 256kts
23-Oct-18 13:40 41.447718 -122.513796 335 28151ft 264kts
23-Oct-18 13:41 41.518541 -122.540763 334 29446ft 270kts
23-Oct-18 13:42 41.592532 -122.569074 335 30075ft 296kts
23-Oct-18 13:43 41.674432 -122.600379 336 30069ft 321kts
23-Oct-18 13:44 41.760824 -122.633512 336 30064ft 331kts
23-Oct-18 13:45 41.840728 -122.664242 336 30073ft 335kts
23-Oct-18 13:46 41.928938 -122.698262 336 30067ft 337kts
23-Oct-18 13:47 42.017234 -122.732424 336 30071ft 338kts
23-Oct-18 13:48 42.105560 -122.766690 336 30074ft 338kts
23-Oct-18 13:49 42.180323 -122.795783 336 30070ft 338kts
23-Oct-18 13:50 42.261164 -122.827313 336 30072ft 337kts
23-Oct-18 13:51 42.349555 -122.861891 336 30073ft 337kts
23-Oct-18 13:52 42.438410 -122.896756 336 30073ft 337kts
23-Oct-18 13:53 42.531061 -122.908787 358 30076ft 350kts
23-Oct-18 13:54 42.627698 -122.899123 357 30075ft 350kts
23-Oct-18 13:55 42.724250 -122.890054 358 30078ft 350kts
23-Oct-18 13:56 42.821251 -122.880949 357 30076ft 351kts
23-Oct-18 13:57 42.918183 -122.871853 358 30078ft 352kts
23-Oct-18 13:58 43.014451 -122.862793 0 30099ft 355kts
23-Oct-18 13:59 43.109536 -122.853711 0 30101ft 359kts
23-Oct-18 14:00 43.194617 -122.845596 0 30093ft 359kts
23-Oct-18 14:01 43.280911 -122.837379 0 30098ft 359kts
23-Oct-18 14:02 43.379975 -122.827886 1 30097ft 359kts
23-Oct-18 14:03 43.478690 -122.818416 0 30100ft 360kts
23-Oct-18 14:04 43.577720 -122.808858 0 30094ft 360kts
23-Oct-18 14:05 43.676767 -122.799310 0 30095ft 359kts
23-Oct-18 14:06 43.775593 -122.789713 0 30093ft 360kts
23-Oct-18 14:07 43.874239 -122.780122 0 30095ft 360kts
23-Oct-18 14:08 43.973037 -122.770493 0 30097ft 360kts
23-Oct-18 14:09 44.073134 -122.760698 0 28670ft 387kts
23-Oct-18 14:10 44.161513 -122.752000 0 27371ft 389kts
23-Oct-18 14:11 44.268145 -122.741636 0 26009ft 386kts
23-Oct-18 14:12 44.371118 -122.731851 0 24172ft 382kts
23-Oct-18 14:13 44.473478 -122.722140 0 22527ft 375kts
23-Oct-18 14:14 44.575654 -122.712430 0 20871ft 366kts
23-Oct-18 14:15 44.674270 -122.702965 0 19520ft 354kts
23-Oct-18 14:16 44.771426 -122.693661 0 17962ft 349kts
23-Oct-18 14:17 44.866145 -122.684632 0 16625ft 340kts
23-Oct-18 14:18 44.959660 -122.675803 0 15103ft 333kts
23-Oct-18 14:19 45.045648 -122.668327 0 14251ft 319kts
23-Oct-18 14:20 45.134133 -122.654729 2 11898ft 318kts
23-Oct-18 14:21 45.216845 -122.646277 0 9559ft 298kts
23-Oct-18 14:22 45.289307 -122.607083 31 7151ft 281kts
23-Oct-18 14:23 45.350112 -122.552458 33 4988ft 246kts
23-Oct-18 14:24 45.406567 -122.501888 35 4996ft 241kts
23-Oct-18 14:25 45.427398 -122.427697 113 4998ft 232kts
23-Oct-18 14:26 45.397804 -122.345269 117 4990ft 234kts
23-Oct-18 14:27 45.381742 -122.276532 69 4744ft 233kts
23-Oct-18 14:28 45.442853 -122.246543 325 3980ft 200kts
23-Oct-18 14:29 45.481793 -122.303460 299 3741ft 212kts
23-Oct-18 14:30 45.504923 -122.363902 299 2982ft 203kts
23-Oct-18 14:31 45.530679 -122.430844 300 2054ft 181kts
23-Oct-18 14:32 45.555653 -122.495335 300 1192ft 129kts
23-Oct-18 14:33 45.568851 -122.529124 300 685ft 103kts
23-Oct-18 14:34 45.584467 -122.569108 300 33ft 92kts
23-Oct-18 14:35 45.588710 -122.582109 213 32ft 12kts
23-Oct-18 14:36 45.587868 -122.582850 242 32ft 8kts
23-Oct-18 14:37 45.587785 -122.585062 168 32ft 5kts
23-Oct-18 14:38 45.587432 -122.584309 120 32ft 0kts
23-Oct-18 14:39 45.587432 -122.584309 120 32ft 0kts
23-Oct-18 14:40 45.587432 -122.584309 120 32ft 0kts

Navigation Log

Ident Type
Flight plan parsing failed, navigation log unavailable